Terminal Aerodrome Forecast
Issued by NWS

Home | Current Version | Previous Version | Text Only | Print | Product List | Glossary On
Versions: 1 2 3 4 5 6 7 8 9 10 11 12 13 14 15 16 17 18 19 20 21 22 23
000
FTUS43 KDLH 191355 AAA
TAFHIB
TAF AMD
KHIB 191355Z 1914/2012 17005KT 1/4SM FZFG VV002
     FM191600 17005KT 4SM BR SCT002 OVC004
     FM191800 17005KT P6SM SCT004
     FM200300 17004KT 5SM -FZDZ BR OVC007
     FM200800 16003KT 1/2SM FZFG OVC003=

USA.gov is the U.S. government's official web portal to all federal, state and local government web resources and services.